Time;durP1;ratioP1;P1;durP2;ratioP2;P2;SDS_P1;SDS_P2;PMS_P1;PMS_P2;Temp;Humidity;BMP_temperature;BMP_pressure;BME280_temperature;BME280_humidity;BME280_pressure;Samples;Min_cycle;Max_cycle;Signal;HPM_P1;HPM_P2
2021/10/12 00:01:50;;;;;;;37.00;26.08;;;11.90;99.90;;;;;;6155727;23;20157;-87
2021/10/12 00:04:16;;;;;;;41.95;27.17;;;11.90;99.90;;;;;;6156097;23;20652;-92
2021/10/12 00:06:43;;;;;;;40.17;27.90;;;11.90;99.90;;;;;;6156530;23;20159;-91
2021/10/12 00:09:12;;;;;;;41.85;27.75;;;11.90;99.90;;;;;;6156578;23;20174;-87
2021/10/12 00:11:38;;;;;;;38.75;26.73;;;11.90;99.90;;;;;;6156182;23;20163;-91
2021/10/12 00:14:03;;;;;;;47.33;28.00;;;11.80;99.90;;;;;;6162997;23;20245;-91
2021/10/12 00:16:29;;;;;;;39.87;26.53;;;11.90;99.90;;;;;;6157230;23;20483;-92
2021/10/12 00:18:58;;;;;;;42.20;26.10;;;11.80;99.90;;;;;;6156711;23;20161;-87
2021/10/12 00:21:25;;;;;;;42.88;26.02;;;11.80;99.90;;;;;;6155957;23;20175;-87
2021/10/12 00:23:51;;;;;;;45.45;29.27;;;11.80;99.90;;;;;;6156078;23;20155;-92
2021/10/12 00:26:18;;;;;;;45.17;28.57;;;11.80;99.90;;;;;;6155910;23;20181;-88
2021/10/12 00:28:45;;;;;;;46.33;28.60;;;11.90;99.90;;;;;;6156775;23;20164;-91
2021/10/12 00:31:12;;;;;;;40.67;27.30;;;11.90;99.90;;;;;;6156397;23;20179;-87
2021/10/12 00:33:37;;;;;;;44.83;28.80;;;11.90;99.90;;;;;;6156501;23;20637;-92
2021/10/12 00:36:22;;;;;;;43.03;27.17;;;11.90;99.90;;;;;;6156106;23;20193;-87
2021/10/12 00:38:48;;;;;;;43.65;28.92;;;11.90;99.90;;;;;;6156513;23;20241;-91
2021/10/12 00:41:15;;;;;;;46.33;28.13;;;11.90;99.90;;;;;;6156414;23;20202;-92
2021/10/12 00:43:41;;;;;;;45.10;28.50;;;11.80;99.90;;;;;;6155960;23;20155;-92
2021/10/12 00:46:07;;;;;;;45.50;28.20;;;11.80;99.90;;;;;;6156574;23;20229;-92
2021/10/12 00:48:34;;;;;;;40.20;27.85;;;11.80;99.90;;;;;;6156300;23;20727;-92
2021/10/12 00:51:00;;;;;;;43.50;28.65;;;11.80;99.90;;;;;;6159228;23;20313;-92
2021/10/12 00:53:26;;;;;;;41.70;27.47;;;11.80;99.90;;;;;;6174645;23;20179;-92
2021/10/12 00:55:53;;;;;;;39.90;28.55;;;11.90;99.90;;;;;;6158933;23;20833;-88
2021/10/12 00:58:19;;;;;;;45.08;26.45;;;11.90;99.90;;;;;;6156373;23;20209;-88
2021/10/12 01:00:46;;;;;;;42.53;28.50;;;11.80;99.90;;;;;;6156005;23;20673;-92
2021/10/12 01:03:13;;;;;;;41.85;28.90;;;11.80;99.90;;;;;;6155770;23;20494;-87
2021/10/12 01:05:40;;;;;;;43.88;29.25;;;11.80;99.90;;;;;;6156560;23;20243;-88
2021/10/12 01:08:07;;;;;;;48.42;29.55;;;11.80;99.90;;;;;;6155467;23;20482;-92
2021/10/12 01:10:35;;;;;;;44.00;28.30;;;11.90;99.90;;;;;;6155566;23;20633;-86
2021/10/12 01:13:02;;;;;;;41.30;26.83;;;11.90;99.90;;;;;;6155666;23;20198;-91
2021/10/12 01:15:33;;;;;;;50.58;29.65;;;11.90;99.90;;;;;;6155718;23;20195;-88
2021/10/12 01:18:00;;;;;;;38.60;27.70;;;11.90;99.90;;;;;;6156030;23;20582;-88
2021/10/12 01:20:27;;;;;;;48.47;30.17;;;11.80;99.90;;;;;;6156188;23;20187;-92
2021/10/12 01:22:54;;;;;;;36.80;25.92;;;11.90;99.90;;;;;;6156187;23;20182;-91
2021/10/12 01:25:21;;;;;;;45.67;26.98;;;11.90;99.90;;;;;;6156460;23;20198;-88
2021/10/12 01:27:48;;;;;;;45.83;29.20;;;11.80;99.90;;;;;;6175216;23;20159;-92
2021/10/12 01:30:16;;;;;;;47.13;31.38;;;11.80;99.90;;;;;;6161167;23;20182;-88
2021/10/12 01:32:45;;;;;;;43.15;28.70;;;11.90;99.90;;;;;;6157713;23;20183;-88
2021/10/12 01:35:14;;;;;;;47.03;28.33;;;11.90;99.90;;;;;;6157961;23;20649;-93
2021/10/12 01:37:40;;;;;;;41.33;28.70;;;11.90;99.90;;;;;;6159227;23;20162;-92
2021/10/12 01:40:08;;;;;;;45.10;29.47;;;11.90;99.90;;;;;;6158442;23;20188;-93
2021/10/12 01:42:35;;;;;;;47.28;30.05;;;11.90;99.90;;;;;;6157855;23;20166;-93
2021/10/12 01:45:04;;;;;;;46.20;29.60;;;11.90;99.90;;;;;;6158602;23;20191;-93
2021/10/12 01:47:30;;;;;;;45.00;30.42;;;11.90;99.90;;;;;;6157786;23;20155;-93
2021/10/12 01:49:56;;;;;;;42.00;29.07;;;11.90;99.90;;;;;;6158518;23;20242;-93
2021/10/12 01:52:25;;;;;;;42.80;26.73;;;11.90;99.90;;;;;;6157651;23;20490;-88
2021/10/12 01:54:51;;;;;;;43.92;28.67;;;11.90;99.90;;;;;;6156850;23;20326;-93
2021/10/12 01:57:18;;;;;;;44.67;28.53;;;11.90;99.90;;;;;;6157458;23;20159;-88
2021/10/12 01:59:56;;;;;;;45.83;30.35;;;11.90;99.90;;;;;;6159229;23;20187;-88
2021/10/12 02:02:23;;;;;;;49.58;29.48;;;11.90;99.90;;;;;;6178005;23;20183;-88
2021/10/12 02:04:49;;;;;;;42.15;28.85;;;11.90;99.90;;;;;;6165755;23;20270;-93
2021/10/12 02:07:17;;;;;;;45.03;29.10;;;11.90;99.90;;;;;;6160662;23;20212;-92
2021/10/12 02:09:47;;;;;;;45.75;31.05;;;11.90;99.90;;;;;;6160155;23;20198;-88
2021/10/12 02:12:14;;;;;;;46.80;29.50;;;11.90;99.90;;;;;;6162640;23;20167;-93
2021/10/12 02:14:42;;;;;;;41.83;28.63;;;11.90;99.90;;;;;;6162363;23;20206;-88
2021/10/12 02:17:09;;;;;;;45.45;30.60;;;11.90;99.90;;;;;;6162312;23;20165;-93
2021/10/12 02:19:36;;;;;;;44.88;30.10;;;11.90;99.90;;;;;;6162446;23;20178;-88
2021/10/12 02:22:02;;;;;;;47.13;29.50;;;11.90;99.90;;;;;;6188762;23;20182;-93
2021/10/12 02:24:35;;;;;;;50.08;29.55;;;11.90;99.90;;;;;;6162551;23;20509;-88
2021/10/12 02:27:02;;;;;;;40.83;28.42;;;11.90;99.90;;;;;;6161991;23;20465;-88
2021/10/12 02:29:28;;;;;;;48.78;28.85;;;11.90;99.90;;;;;;6163017;23;20190;-93
2021/10/12 02:31:54;;;;;;;47.90;29.67;;;11.90;99.90;;;;;;6162691;23;20201;-93
2021/10/12 02:34:22;;;;;;;47.40;27.80;;;11.80;99.90;;;;;;6171304;23;20202;-93
2021/10/12 02:36:48;;;;;;;42.63;29.67;;;11.80;99.90;;;;;;6162112;23;20380;-92
2021/10/12 02:39:15;;;;;;;51.38;30.88;;;11.80;99.90;;;;;;6188009;23;20521;-92
2021/10/12 02:41:47;;;;;;;45.45;29.30;;;11.90;99.90;;;;;;6161737;23;20507;-88
2021/10/12 02:44:18;;;;;;;48.25;31.08;;;11.80;99.90;;;;;;6161610;23;20170;-88
2021/10/12 02:46:44;;;;;;;46.50;30.38;;;11.80;99.90;;;;;;6162278;23;20162;-88
2021/10/12 02:49:10;;;;;;;48.25;30.40;;;11.80;99.90;;;;;;6161489;23;20208;-92
2021/10/12 02:51:36;;;;;;;47.95;31.80;;;11.80;99.90;;;;;;6188406;23;20154;-87
2021/10/12 02:54:02;;;;;;;49.13;30.33;;;11.90;99.90;;;;;;6161535;23;20244;-92
2021/10/12 02:56:29;;;;;;;46.55;29.92;;;11.90;99.90;;;;;;6161637;23;20384;-88
2021/10/12 02:58:55;;;;;;;42.78;29.55;;;11.90;99.90;;;;;;6161724;23;20184;-93
2021/10/12 03:01:23;;;;;;;47.90;28.97;;;11.90;99.90;;;;;;6161607;23;20184;-87
2021/10/12 03:03:49;;;;;;;50.35;30.25;;;11.90;99.90;;;;;;6161924;23;20154;-88
2021/10/12 03:06:16;;;;;;;47.07;31.30;;;11.90;99.90;;;;;;6162059;23;20248;-88
2021/10/12 03:08:42;;;;;;;48.15;27.70;;;11.90;99.90;;;;;;6194173;23;20147;-88
2021/10/12 03:11:10;;;;;;;46.97;29.50;;;11.90;99.90;;;;;;6170039;23;20189;-93
2021/10/12 03:13:36;;;;;;;46.58;30.85;;;11.90;99.90;;;;;;6161485;23;20198;-88
2021/10/12 03:16:04;;;;;;;45.30;30.10;;;11.90;99.90;;;;;;6188874;23;20175;-92
2021/10/12 03:18:33;;;;;;;45.38;29.25;;;11.90;99.90;;;;;;6162928;23;20400;-93
2021/10/12 03:20:59;;;;;;;49.70;30.83;;;11.90;99.90;;;;;;6162641;23;20186;-93
2021/10/12 03:23:26;;;;;;;40.60;28.42;;;11.90;99.90;;;;;;6161171;23;20212;-92
2021/10/12 03:25:53;;;;;;;49.28;31.13;;;11.90;99.90;;;;;;6162935;23;20637;-89
2021/10/12 03:28:24;;;;;;;54.58;31.92;;;11.90;99.90;;;;;;6162179;23;20585;-92
2021/10/12 03:30:50;;;;;;;48.95;30.15;;;11.90;99.90;;;;;;6162754;23;20183;-94
2021/10/12 03:33:16;;;;;;;43.50;28.83;;;11.90;99.90;;;;;;6161164;23;20220;-91
2021/10/12 03:35:50;;;;;;;50.87;31.90;;;11.90;99.90;;;;;;6161898;23;20403;-92
2021/10/12 03:38:17;;;;;;;46.50;29.73;;;11.90;99.90;;;;;;6161535;23;20717;-93
2021/10/12 03:40:43;;;;;;;43.40;29.67;;;11.90;99.90;;;;;;6161390;23;20182;-93
2021/10/12 03:43:10;;;;;;;50.75;27.92;;;11.90;99.90;;;;;;6188090;23;20162;-88
2021/10/12 03:45:37;;;;;;;44.03;27.75;;;11.90;99.90;;;;;;6168712;23;20221;-89
2021/10/12 03:48:04;;;;;;;41.13;28.30;;;11.90;99.90;;;;;;6160832;23;20158;-92
2021/10/12 03:50:30;;;;;;;46.47;29.27;;;11.90;99.90;;;;;;6161372;23;20186;-93
2021/10/12 03:52:56;;;;;;;46.10;30.30;;;11.90;99.90;;;;;;6161396;23;20158;-92
2021/10/12 03:55:24;;;;;;;45.63;29.90;;;11.90;99.90;;;;;;6161316;23;20463;-92
2021/10/12 03:57:57;;;;;;;42.40;28.13;;;11.80;99.90;;;;;;6161323;23;20390;-88
2021/10/12 04:00:24;;;;;;;49.50;30.05;;;11.80;99.90;;;;;;6164012;23;20217;-92
2021/10/12 04:02:50;;;;;;;44.63;30.70;;;11.80;99.90;;;;;;6162762;23;20163;-90
2021/10/12 04:05:17;;;;;;;54.03;32.47;;;11.80;99.90;;;;;;6162630;23;20485;-94
2021/10/12 04:07:50;;;;;;;43.20;29.33;;;11.90;99.90;;;;;;6165939;23;20190;-88
2021/10/12 04:10:16;;;;;;;47.22;28.55;;;11.90;99.90;;;;;;6199631;23;20175;-88
2021/10/12 04:12:42;;;;;;;44.53;30.98;;;11.90;99.90;;;;;;6187229;23;20198;-93
2021/10/12 04:15:09;;;;;;;42.80;29.57;;;11.90;99.90;;;;;;6160680;23;20707;-88
2021/10/12 04:17:35;;;;;;;42.50;28.25;;;11.80;99.90;;;;;;6161113;23;20395;-92
2021/10/12 04:20:03;;;;;;;42.60;27.67;;;11.80;99.90;;;;;;6161135;23;20194;-89
2021/10/12 04:22:29;;;;;;;43.90;29.00;;;11.80;99.90;;;;;;6161017;23;20659;-92
2021/10/12 04:24:56;;;;;;;43.47;28.48;;;11.80;99.90;;;;;;6160287;23;20524;-92
2021/10/12 04:27:24;;;;;;;46.70;29.20;;;11.80;99.90;;;;;;6160903;23;20165;-88
2021/10/12 04:29:51;;;;;;;46.33;27.98;;;11.70;99.90;;;;;;6160998;23;20237;-87
2021/10/12 04:32:17;;;;;;;43.65;28.13;;;11.80;99.90;;;;;;6161822;23;20581;-92
2021/10/12 04:34:45;;;;;;;41.13;28.15;;;11.80;99.90;;;;;;6160974;23;20668;-88
2021/10/12 04:37:11;;;;;;;45.92;28.65;;;11.80;99.90;;;;;;6162123;23;20157;-92
2021/10/12 04:39:36;;;;;;;44.83;29.97;;;11.80;99.90;;;;;;6163389;23;20190;-93
2021/10/12 04:42:06;;;;;;;43.43;27.93;;;11.90;99.90;;;;;;6205155;23;20340;-88
2021/10/12 04:44:32;;;;;;;45.05;29.88;;;11.90;99.90;;;;;;6194497;23;20178;-91
2021/10/12 04:46:58;;;;;;;41.17;27.65;;;11.90;99.90;;;;;;6160459;23;20158;-92
2021/10/12 04:49:24;;;;;;;45.70;29.60;;;11.90;99.90;;;;;;6160767;23;20192;-93
2021/10/12 04:51:50;;;;;;;38.50;27.33;;;11.90;99.90;;;;;;6161107;23;20409;-92
2021/10/12 04:54:17;;;;;;;45.27;29.40;;;11.90;99.90;;;;;;6160439;23;20197;-88
2021/10/12 04:56:43;;;;;;;42.10;28.30;;;11.90;99.90;;;;;;6160162;23;20355;-92
2021/10/12 04:59:11;;;;;;;43.80;29.10;;;11.90;99.90;;;;;;6159763;23;20245;-89
2021/10/12 05:01:37;;;;;;;43.20;28.80;;;11.90;99.90;;;;;;6160745;23;20392;-92
2021/10/12 05:04:04;;;;;;;41.40;28.80;;;11.90;99.90;;;;;;6160765;23;20176;-92
2021/10/12 05:06:30;;;;;;;37.08;28.38;;;11.80;99.90;;;;;;6161163;23;20216;-88
2021/10/12 05:08:57;;;;;;;45.03;28.42;;;11.80;99.90;;;;;;6161435;23;20158;-88
2021/10/12 05:11:23;;;;;;;40.05;26.38;;;11.80;99.90;;;;;;6160446;23;20604;-89
2021/10/12 05:13:50;;;;;;;37.65;26.58;;;11.70;99.90;;;;;;6158825;23;20207;-89
2021/10/12 05:16:19;;;;;;;39.42;27.23;;;11.70;99.90;;;;;;6173536;23;20249;-90
2021/10/12 05:18:47;;;;;;;34.22;25.40;;;11.70;99.90;;;;;;6162181;23;20675;-92
2021/10/12 05:21:14;;;;;;;40.15;27.55;;;11.70;99.90;;;;;;6155962;23;20187;-88
2021/10/12 05:23:42;;;;;;;49.53;28.48;;;11.70;99.90;;;;;;6155405;23;20559;-89
2021/10/12 05:26:09;;;;;;;43.28;28.13;;;11.70;99.90;;;;;;6155671;23;20575;-87
2021/10/12 05:28:36;;;;;;;34.25;25.23;;;11.70;99.90;;;;;;6155416;23;20163;-92
2021/10/12 05:31:02;;;;;;;41.57;27.60;;;11.60;99.90;;;;;;6155326;23;20633;-91
2021/10/12 05:33:28;;;;;;;43.35;28.27;;;11.60;99.90;;;;;;6154038;23;20725;-87
2021/10/12 05:35:54;;;;;;;39.75;27.95;;;11.60;99.90;;;;;;6155988;23;20667;-92
2021/10/12 05:38:21;;;;;;;44.05;27.17;;;11.50;99.90;;;;;;6157387;23;20488;-92
2021/10/12 05:40:50;;;;;;;39.85;27.33;;;11.50;99.90;;;;;;6156722;23;20183;-88
2021/10/12 05:43:16;;;;;;;40.58;27.58;;;11.50;99.90;;;;;;6155319;23;20221;-87
2021/10/12 05:45:42;;;;;;;44.97;27.75;;;11.50;99.90;;;;;;6155179;23;20179;-87
2021/10/12 05:48:11;;;;;;;38.72;27.90;;;11.50;99.90;;;;;;6171775;23;20155;-87
2021/10/12 05:50:37;;;;;;;39.15;27.92;;;11.40;99.90;;;;;;6160577;23;20179;-92
2021/10/12 05:53:19;;;;;;;41.88;28.75;;;11.40;99.90;;;;;;6154992;23;20234;-87
2021/10/12 05:58:34;;;;;;;42.92;26.73;;;11.40;99.90;;;;;;6165509;23;20151;-87
2021/10/12 06:01:03;;;;;;;39.95;27.20;;;11.40;99.90;;;;;;6154405;23;20183;-86
2021/10/12 06:03:29;;;;;;;42.70;28.35;;;11.40;99.90;;;;;;6155517;23;20151;-92
2021/10/12 06:05:56;;;;;;;37.10;26.07;;;11.40;99.90;;;;;;6153063;23;20183;-86
2021/10/12 06:08:22;;;;;;;39.58;28.95;;;11.40;99.90;;;;;;6152644;23;20400;-92
2021/10/12 06:10:51;;;;;;;42.10;28.48;;;11.40;99.90;;;;;;6159415;23;20209;-86
2021/10/12 06:13:18;;;;;;;41.85;27.05;;;11.40;99.90;;;;;;6154919;23;20207;-87
2021/10/12 06:15:46;;;;;;;43.78;28.88;;;11.40;99.90;;;;;;6152536;23;20191;-93
2021/10/12 06:18:12;;;;;;;44.10;28.85;;;11.40;99.90;;;;;;6151752;23;20166;-86
2021/10/12 06:20:39;;;;;;;43.58;27.42;;;11.40;99.90;;;;;;6159135;23;20183;-86
2021/10/12 06:23:04;;;;;;;42.88;30.08;;;11.40;99.90;;;;;;6152205;23;20219;-92
2021/10/12 06:25:30;;;;;;;39.67;29.53;;;11.40;99.90;;;;;;6153015;23;20729;-86
2021/10/12 06:27:56;;;;;;;42.33;27.40;;;11.40;99.90;;;;;;6151482;23;20167;-92
2021/10/12 06:30:26;;;;;;;46.30;29.67;;;11.40;99.90;;;;;;6149666;23;20213;-87
2021/10/12 06:32:53;;;;;;;43.45;30.90;;;11.40;99.90;;;;;;6159079;23;20334;-86
2021/10/12 06:35:19;;;;;;;43.63;33.45;;;11.50;99.90;;;;;;6151666;23;20422;-92
2021/10/12 06:37:50;;;;;;;46.53;32.40;;;11.50;99.90;;;;;;6155467;23;20147;-87
2021/10/12 06:40:16;;;;;;;47.25;32.72;;;11.50;99.90;;;;;;6153850;23;20187;-93
2021/10/12 06:42:41;;;;;;;44.95;30.52;;;11.50;99.90;;;;;;6151618;23;20203;-92
2021/10/12 06:45:11;;;;;;;45.60;31.50;;;11.50;99.90;;;;;;6149892;23;20191;-91
2021/10/12 06:47:38;;;;;;;43.22;29.73;;;11.60;99.90;;;;;;6152986;23;20563;-88
2021/10/12 06:50:05;;;;;;;44.33;30.45;;;11.60;99.90;;;;;;6168579;23;20516;-94
2021/10/12 06:52:32;;;;;;;44.40;29.17;;;11.60;99.90;;;;;;6156051;23;20754;-93
2021/10/12 06:54:58;;;;;;;42.00;29.65;;;11.60;99.90;;;;;;6155748;23;20281;-87
2021/10/12 06:57:24;;;;;;;46.25;30.60;;;11.60;99.90;;;;;;6167118;23;20171;-88
2021/10/12 06:59:50;;;;;;;46.00;29.40;;;11.70;99.90;;;;;;6163884;23;20191;-87
2021/10/12 07:02:16;;;;;;;46.25;31.20;;;11.70;99.90;;;;;;6158673;23;20540;-91
2021/10/12 07:04:46;;;;;;;48.33;33.13;;;11.70;99.90;;;;;;6157821;23;20275;-87
2021/10/12 07:07:13;;;;;;;50.63;34.63;;;11.70;99.90;;;;;;6155255;23;20155;-93
2021/10/12 07:09:39;;;;;;;45.95;31.35;;;11.80;99.90;;;;;;6152842;23;20704;-87
2021/10/12 07:12:05;;;;;;;42.87;29.80;;;11.80;99.90;;;;;;6154011;23;20151;-88
2021/10/12 07:14:31;;;;;;;52.43;38.00;;;11.80;99.90;;;;;;6159286;23;20531;-93
2021/10/12 07:16:56;;;;;;;47.90;31.73;;;11.90;99.90;;;;;;6159237;23;20380;-88
2021/10/12 07:19:26;;;;;;;46.23;31.53;;;11.90;99.90;;;;;;6159491;23;20971;-87
2021/10/12 07:21:54;;;;;;;46.97;32.38;;;12.00;99.90;;;;;;6160948;23;20660;-87
2021/10/12 07:24:21;;;;;;;47.13;31.98;;;12.00;99.90;;;;;;6173120;23;20163;-92
2021/10/12 07:26:46;;;;;;;57.50;31.13;;;12.00;99.90;;;;;;6160255;23;20470;-91
2021/10/12 07:29:12;;;;;;;48.57;31.17;;;12.10;99.90;;;;;;6159115;23;20223;-93
2021/10/12 07:31:39;;;;;;;43.23;29.57;;;12.20;99.90;;;;;;6158347;23;20158;-87
2021/10/12 07:34:07;;;;;;;48.30;29.17;;;12.20;99.90;;;;;;6159221;23;20204;-93
2021/10/12 07:36:37;;;;;;;44.92;29.58;;;12.30;99.90;;;;;;6158075;23;20238;-87
2021/10/12 07:39:05;;;;;;;49.67;30.00;;;12.30;99.90;;;;;;6156248;23;20175;-92
2021/10/12 07:41:32;;;;;;;44.95;31.25;;;12.40;99.90;;;;;;6157028;23;20154;-92
2021/10/12 07:44:03;;;;;;;42.65;29.77;;;12.40;99.90;;;;;;6184402;23;21177;-87
2021/10/12 07:46:30;;;;;;;43.88;30.42;;;12.50;99.90;;;;;;6167263;23;20155;-86
2021/10/12 07:48:58;;;;;;;45.97;29.27;;;12.60;99.90;;;;;;6149077;23;20162;-92
2021/10/12 07:51:33;;;;;;;41.15;29.58;;;12.60;99.90;;;;;;6146879;23;20229;-93
2021/10/12 07:54:13;;;;;;;44.58;30.23;;;12.80;99.90;;;;;;6153620;23;20206;-86
2021/10/12 07:56:40;;;;;;;41.90;28.77;;;13.10;99.90;;;;;;6159342;23;20147;-87
2021/10/12 07:59:12;;;;;;;43.50;28.52;;;13.40;99.90;;;;;;6146794;23;20159;-87
2021/10/12 08:01:39;;;;;;;36.03;26.53;;;13.80;99.90;;;;;;6156825;23;20639;-87
2021/10/12 08:04:06;;;;;;;37.00;25.73;;;14.30;99.90;;;;;;6130542;23;20393;-87
2021/10/12 08:06:33;;;;;;;36.10;25.37;;;14.80;99.90;;;;;;6156782;23;20831;-87
2021/10/12 08:08:58;;;;;;;33.83;24.50;;;15.20;99.90;;;;;;6154772;23;20913;-87
2021/10/12 08:11:25;;;;;;;29.73;23.20;;;15.50;99.90;;;;;;6156783;23;20412;-92
2021/10/12 08:13:58;;;;;;;36.23;24.17;;;15.70;99.90;;;;;;6186123;23;20931;-87
2021/10/12 08:16:29;;;;;;;32.37;23.80;;;15.80;99.90;;;;;;6160069;23;20423;-94
2021/10/12 08:18:58;;;;;;;36.77;24.00;;;15.70;99.90;;;;;;6199894;23;20343;-89
2021/10/12 08:21:28;;;;;;;36.53;25.53;;;15.60;99.90;;;;;;6159671;23;20386;-88
2021/10/12 08:23:54;;;;;;;46.33;27.57;;;15.40;99.90;;;;;;6158340;23;20358;-88
2021/10/12 08:26:20;;;;;;;33.57;22.93;;;15.30;99.90;;;;;;6159481;23;20899;-93
2021/10/12 08:28:46;;;;;;;31.00;24.60;;;15.20;99.90;;;;;;6186351;23;20385;-93
2021/10/12 08:31:13;;;;;;;35.83;24.20;;;15.10;99.90;;;;;;6158132;23;20766;-87
2021/10/12 08:33:43;;;;;;;35.40;24.40;;;15.10;99.90;;;;;;6158174;23;20470;-87
2021/10/12 08:36:12;;;;;;;33.97;25.80;;;14.90;99.90;;;;;;6160645;23;20409;-93
2021/10/12 08:38:43;;;;;;;35.97;24.87;;;14.80;99.90;;;;;;6165886;23;20417;-92
2021/10/12 08:41:15;;;;;;;34.10;23.47;;;14.70;99.90;;;;;;6156647;23;20989;-87
2021/10/12 08:43:41;;;;;;;32.33;22.67;;;14.60;99.90;;;;;;6158207;23;20359;-94
2021/10/12 08:46:07;;;;;;;32.27;23.63;;;14.60;99.90;;;;;;6159207;23;20404;-87
2021/10/12 08:48:35;;;;;;;33.80;22.27;;;14.60;99.90;;;;;;6157602;23;20355;-87
2021/10/12 08:51:05;;;;;;;31.30;22.87;;;14.50;99.90;;;;;;6159379;23;20404;-89
2021/10/12 08:53:33;;;;;;;35.13;23.77;;;14.50;99.90;;;;;;6175715;23;20451;-88
2021/10/12 08:56:02;;;;;;;32.97;23.73;;;14.40;99.90;;;;;;6157507;23;20423;-88
2021/10/12 08:58:30;;;;;;;31.00;22.17;;;14.40;99.90;;;;;;6156831;23;20416;-88
2021/10/12 09:01:07;;;;;;;28.60;21.43;;;14.40;99.90;;;;;;6157095;23;20396;-94
2021/10/12 09:06:30;;;;;;;33.30;22.07;;;14.30;99.90;;;;;;6180668;23;20547;-87
2021/10/12 09:08:57;;;;;;;30.07;20.87;;;14.30;99.90;;;;;;6168400;23;20367;-95
2021/10/12 09:11:30;;;;;;;27.40;19.57;;;14.30;99.90;;;;;;6159936;23;20428;-88
2021/10/12 09:14:04;;;;;;;32.57;22.60;;;14.30;99.90;;;;;;6159881;23;20457;-88
2021/10/12 09:16:42;;;;;;;36.07;21.23;;;14.30;99.90;;;;;;6155034;23;20392;-94
2021/10/12 09:19:11;;;;;;;37.60;25.97;;;14.30;99.90;;;;;;6155327;23;20400;-88
2021/10/12 09:21:39;;;;;;;32.77;23.77;;;14.30;99.90;;;;;;6164738;23;20431;-95
2021/10/12 09:24:11;;;;;;;30.93;21.77;;;14.30;99.90;;;;;;6157328;23;20594;-92
2021/10/12 09:26:44;;;;;;;33.10;21.93;;;14.30;99.90;;;;;;6182972;23;20377;-94
2021/10/12 09:29:23;;;;;;;29.10;20.83;;;14.40;99.90;;;;;;6154115;23;20885;-90
2021/10/12 09:31:49;;;;;;;26.13;19.07;;;14.40;99.90;;;;;;6156579;23;20378;-87
2021/10/12 09:34:18;;;;;;;32.30;20.23;;;14.50;99.90;;;;;;6184462;23;20439;-95
2021/10/12 09:36:45;;;;;;;24.53;17.30;;;14.60;99.90;;;;;;6155534;23;20170;-95
2021/10/12 09:39:15;;;;;;;23.07;18.47;;;14.70;99.90;;;;;;6157324;23;20902;-87
2021/10/12 09:42:00;;;;;;;22.40;17.67;;;14.70;99.90;;;;;;6154960;23;20737;-86
2021/10/12 09:44:28;;;;;;;29.77;19.67;;;14.80;99.90;;;;;;6175417;23;20422;-87
2021/10/12 09:47:11;;;;;;;26.53;17.70;;;14.90;99.90;;;;;;6153422;23;20924;-87
2021/10/12 09:49:37;;;;;;;25.70;16.93;;;14.90;99.90;;;;;;6155999;23;20416;-93
2021/10/12 09:52:14;;;;;;;23.17;15.53;;;14.90;99.90;;;;;;6159922;23;20445;-94
2021/10/12 09:54:49;;;;;;;24.20;16.23;;;15.00;99.90;;;;;;6158884;23;20451;-93
2021/10/12 09:57:17;;;;;;;20.77;16.53;;;15.00;99.90;;;;;;6162369;23;20714;-94
2021/10/12 09:59:45;;;;;;;20.60;15.03;;;15.00;99.90;;;;;;6159850;23;20849;-87
2021/10/12 10:02:19;;;;;;;19.53;15.07;;;15.00;99.90;;;;;;6151154;23;20651;-87
2021/10/12 10:04:45;;;;;;;19.77;15.50;;;15.10;99.90;;;;;;6129643;23;20993;-95
2021/10/12 10:07:41;;;;;;;22.00;16.10;;;15.10;99.90;;;;;;6147006;23;20919;-87
2021/10/12 10:10:08;;;;;;;22.10;14.90;;;15.10;99.90;;;;;;6157348;23;20422;-94
2021/10/12 10:12:35;;;;;;;20.87;15.80;;;15.20;99.90;;;;;;6168576;23;20495;-93
2021/10/12 10:15:02;;;;;;;24.60;16.77;;;15.20;99.90;;;;;;6151412;23;20522;-92
2021/10/12 10:17:30;;;;;;;21.43;16.50;;;15.30;99.90;;;;;;6154207;23;20417;-87
2021/10/12 10:19:58;;;;;;;24.10;17.93;;;15.30;99.90;;;;;;6153706;23;20423;-90
2021/10/12 10:22:49;;;;;;;19.87;15.27;;;15.40;99.90;;;;;;6153344;23;20776;-88
2021/10/12 10:25:40;;;;;;;21.10;16.13;;;15.40;99.90;;;;;;6153704;23;20416;-87
2021/10/12 10:28:27;;;;;;;25.83;17.00;;;15.50;99.90;;;;;;6153711;23;20368;-94
2021/10/12 10:30:59;;;;;;;22.40;15.70;;;15.50;99.90;;;;;;6155257;23;20413;-88
2021/10/12 10:33:35;;;;;;;21.67;15.83;;;15.50;99.90;;;;;;6156111;23;20393;-88
2021/10/12 10:36:05;;;;;;;25.30;15.80;;;15.50;99.90;;;;;;6156081;23;20408;-88
2021/10/12 10:38:47;;;;;;;24.17;17.60;;;15.50;99.90;;;;;;6154862;23;20733;-93
2021/10/12 10:41:14;;;;;;;25.10;16.23;;;15.50;99.90;;;;;;6155440;23;21002;-88
2021/10/12 10:43:51;;;;;;;24.33;17.27;;;15.50;99.90;;;;;;6155128;23;20385;-88
2021/10/12 10:46:44;;;;;;;23.37;16.73;;;15.50;99.90;;;;;;6156953;23;20401;-88
2021/10/12 10:49:24;;;;;;;19.73;15.80;;;15.50;99.90;;;;;;6160613;23;20457;-93
2021/10/12 10:52:05;;;;;;;19.80;15.03;;;15.50;99.90;;;;;;6154983;23;20403;-94
2021/10/12 10:54:38;;;;;;;19.07;14.37;;;15.50;99.90;;;;;;6153082;23;20476;-88
2021/10/12 10:57:18;;;;;;;18.50;13.30;;;15.50;99.90;;;;;;6152460;23;20949;-87
2021/10/12 10:59:45;;;;;;;17.87;12.70;;;15.50;99.90;;;;;;6151729;23;20872;-87
2021/10/12 11:02:26;;;;;;;17.17;12.80;;;15.50;99.90;;;;;;6153244;23;20416;-87
2021/10/12 11:04:53;;;;;;;18.70;13.57;;;15.50;99.90;;;;;;6153972;23;20888;-87
2021/10/12 11:07:20;;;;;;;17.60;13.30;;;15.50;99.90;;;;;;6160864;23;20385;-93
2021/10/12 11:09:47;;;;;;;18.77;13.50;;;15.50;99.90;;;;;;6164449;23;20421;-93
2021/10/12 11:12:28;;;;;;;22.93;16.53;;;15.50;99.90;;;;;;6157036;23;20476;-94
2021/10/12 11:15:04;;;;;;;26.73;15.47;;;15.50;99.90;;;;;;6166546;23;20451;-94
2021/10/12 11:17:31;;;;;;;23.63;16.67;;;15.50;99.90;;;;;;6167297;23;20380;-94
2021/10/12 11:19:59;;;;;;;21.23;15.50;;;15.40;99.90;;;;;;6191192;23;20404;-95
2021/10/12 11:22:38;;;;;;;24.00;15.33;;;15.40;99.90;;;;;;6164543;23;20412;-87
2021/10/12 11:25:06;;;;;;;17.70;13.27;;;15.40;99.90;;;;;;6189711;23;20400;-87
2021/10/12 11:27:45;;;;;;;19.10;13.30;;;15.40;99.90;;;;;;6162351;23;20783;-87
2021/10/12 11:30:14;;;;;;;22.97;14.83;;;15.40;99.90;;;;;;6163084;23;20416;-91
2021/10/12 11:32:41;;;;;;;20.20;14.30;;;15.40;99.90;;;;;;6189756;23;20375;-87
2021/10/12 11:35:09;;;;;;;23.43;15.07;;;15.40;99.90;;;;;;6160291;23;20452;-87
2021/10/12 11:37:52;;;;;;;11.27;9.10;;;15.40;99.90;;;;;;6163350;23;20708;-87
2021/10/12 11:40:21;;;;;;;10.50;8.93;;;15.40;99.90;;;;;;6164573;23;20420;-87
2021/10/12 11:42:47;;;;;;;13.53;9.07;;;15.40;99.90;;;;;;6177004;23;20376;-87
2021/10/12 11:45:15;;;;;;;11.33;9.00;;;15.40;99.90;;;;;;6158801;23;20764;-94
2021/10/12 11:47:42;;;;;;;12.27;7.60;;;15.50;99.90;;;;;;6178524;23;20368;-94
2021/10/12 11:50:10;;;;;;;12.60;8.63;;;15.40;99.90;;;;;;6149517;23;20424;-93
2021/10/12 11:52:37;;;;;;;10.03;7.77;;;15.50;99.90;;;;;;6155240;23;21019;-93
2021/10/12 11:55:09;;;;;;;9.90;7.27;;;15.50;99.90;;;;;;6157022;23;20447;-93
2021/10/12 11:57:37;;;;;;;7.37;6.60;;;15.50;99.90;;;;;;6156791;23;20821;-94
2021/10/12 12:00:05;;;;;;;10.73;6.20;;;15.50;99.90;;;;;;6155241;23;20412;-87
2021/10/12 12:02:31;;;;;;;7.10;6.37;;;15.50;99.90;;;;;;6152100;23;20412;-87
2021/10/12 12:05:02;;;;;;;8.13;5.23;;;15.50;99.90;;;;;;6153975;23;20420;-88
2021/10/12 12:07:30;;;;;;;6.93;5.53;;;15.50;99.90;;;;;;6157779;23;20389;-88
2021/10/12 12:09:57;;;;;;;7.47;5.90;;;15.50;99.90;;;;;;6153299;23;20486;-86
2021/10/12 12:12:25;;;;;;;8.63;6.10;;;15.60;99.90;;;;;;6152776;23;20436;-93
2021/10/12 12:14:52;;;;;;;8.47;5.30;;;15.60;99.90;;;;;;6177234;23;20447;-87
2021/10/12 12:17:27;;;;;;;5.77;5.17;;;15.60;99.90;;;;;;6149833;23;20451;-95
2021/10/12 12:20:09;;;;;;;8.23;6.10;;;15.70;99.90;;;;;;6153266;23;20431;-94
2021/10/12 12:22:42;;;;;;;8.33;7.10;;;15.70;99.90;;;;;;6151989;23;20733;-86
2021/10/12 12:25:18;;;;;;;7.73;6.13;;;15.70;99.90;;;;;;6156048;23;20419;-95
2021/10/12 12:27:56;;;;;;;8.60;6.77;;;15.70;99.90;;;;;;6155456;23;20734;-95
2021/10/12 12:30:39;;;;;;;9.13;6.73;;;15.70;99.90;;;;;;6155467;23;20424;-93
2021/10/12 12:33:10;;;;;;;8.60;6.13;;;15.70;99.90;;;;;;6159113;23;20423;-95
2021/10/12 12:35:43;;;;;;;9.10;6.13;;;15.70;99.90;;;;;;6155706;23;20482;-95
2021/10/12 12:38:10;;;;;;;8.57;6.03;;;15.70;99.90;;;;;;6180993;23;20380;-95
2021/10/12 12:40:41;;;;;;;7.10;5.13;;;15.70;99.90;;;;;;6154787;23;20420;-94
2021/10/12 12:43:24;;;;;;;9.93;7.77;;;15.60;99.90;;;;;;6182511;23;20529;-87